Time;durP1;ratioP1;P1;durP2;ratioP2;P2;SDS_P1;SDS_P2;PMS_P1;PMS_P2;Temp;Humidity;BMP_temperature;BMP_pressure;BME280_temperature;BME280_humidity;BME280_pressure;Samples;Min_cycle;Max_cycle;Signal;HPM_P1;HPM_P2
2023/01/18 00:01:53;;;;;;;25.90;10.97;;;;;;;;;;5027961;28;20051;-78
2023/01/18 00:04:19;;;;;;;25.23;11.93;;;;;;;;;;5028083;28;20116;-78
2023/01/18 00:06:45;;;;;;;20.63;11.03;;;;;;;;;;5027785;28;20760;-78
2023/01/18 00:09:11;;;;;;;19.87;11.20;;;;;;;;;;5029747;28;20025;-79
2023/01/18 00:11:36;;;;;;;21.23;11.07;;;;;;;;;;5028212;28;20021;-78
2023/01/18 00:14:02;;;;;;;26.13;11.70;;;;;;;;;;5028301;28;20037;-77
2023/01/18 00:16:29;;;;;;;25.83;13.10;;;;;;;;;;5029153;28;20029;-77
2023/01/18 00:18:58;;;;;;;21.43;10.37;;;;;;;;;;5031945;28;20025;-78
2023/01/18 00:21:26;;;;;;;21.10;11.00;;;;;;;;;;5015528;28;20394;-77
2023/01/18 00:23:53;;;;;;;24.47;10.57;;;;;;;;;;5032048;28;20092;-77
2023/01/18 00:26:18;;;;;;;24.00;11.37;;;;;;;;;;5034130;28;20491;-77
2023/01/18 00:28:44;;;;;;;21.60;10.83;;;;;;;;;;5033866;28;20025;-79
2023/01/18 00:31:11;;;;;;;27.83;11.57;;;;;;;;;;5033996;28;20076;-79
2023/01/18 00:33:37;;;;;;;22.37;11.73;;;;;;;;;;5034171;28;20551;-77
2023/01/18 00:36:04;;;;;;;22.67;11.67;;;;;;;;;;5035492;28;20034;-77
2023/01/18 00:38:30;;;;;;;23.17;11.77;;;;;;;;;;5021015;28;20140;-79
2023/01/18 00:40:56;;;;;;;25.40;11.37;;;;;;;;;;5013756;28;20092;-78
2023/01/18 00:43:40;;;;;;;24.10;12.23;;;;;;;;;;5013786;28;20183;-78
2023/01/18 00:46:08;;;;;;;23.53;11.47;;;;;;;;;;5012641;28;20439;-78
2023/01/18 00:48:34;;;;;;;26.27;11.50;;;;;;;;;;5013819;28;20382;-77
2023/01/18 00:51:00;;;;;;;22.87;11.60;;;;;;;;;;5013073;28;20044;-77
2023/01/18 00:53:26;;;;;;;23.57;11.90;;;;;;;;;;5012979;28;20033;-77
2023/01/18 00:55:52;;;;;;;22.67;11.27;;;;;;;;;;5012333;28;20034;-78
2023/01/18 00:58:18;;;;;;;26.83;12.20;;;;;;;;;;5013031;28;20469;-77
2023/01/18 01:00:43;;;;;;;20.03;11.43;;;;;;;;;;5011213;28;20171;-77
2023/01/18 01:03:09;;;;;;;25.97;12.30;;;;;;;;;;5011539;28;20030;-77
2023/01/18 01:08:22;;;;;;;21.93;12.40;;;;;;;;;;5013233;28;20049;-79
2023/01/18 01:10:50;;;;;;;25.80;12.40;;;;;;;;;;5012604;28;20049;-78
2023/01/18 01:27:01;;;;;;;17.00;8.73;;;;;;;;;;5012610;28;20040;-77
2023/01/18 01:29:27;;;;;;;18.00;9.57;;;;;;;;;;5011039;28;20117;-78
2023/01/18 01:31:52;;;;;;;15.87;9.10;;;;;;;;;;5010784;28;20439;-76
2023/01/18 01:34:18;;;;;;;19.70;9.83;;;;;;;;;;5012243;28;20478;-77
2023/01/18 01:36:43;;;;;;;14.60;8.47;;;;;;;;;;5011910;28;20708;-77
2023/01/18 01:39:09;;;;;;;18.67;9.17;;;;;;;;;;5027220;28;20029;-77
2023/01/18 01:41:36;;;;;;;14.77;8.20;;;;;;;;;;5029896;28;20481;-77
2023/01/18 01:44:26;;;;;;;18.43;9.73;;;;;;;;;;5031468;28;20122;-78
2023/01/18 01:46:55;;;;;;;18.67;9.87;;;;;;;;;;5029874;28;20152;-78
2023/01/18 01:49:49;;;;;;;17.27;9.40;;;;;;;;;;5031962;28;20532;-78
2023/01/18 01:52:22;;;;;;;16.57;7.70;;;;;;;;;;5028688;28;20451;-77
2023/01/18 01:55:26;;;;;;;13.03;7.80;;;;;;;;;;5030075;28;20112;-78
2023/01/18 01:57:57;;;;;;;12.87;7.90;;;;;;;;;;5029000;28;20034;-77
2023/01/18 02:00:23;;;;;;;16.27;8.20;;;;;;;;;;5029107;28;20030;-78
2023/01/18 02:02:54;;;;;;;13.93;7.63;;;;;;;;;;5029849;28;20451;-78
2023/01/18 02:05:19;;;;;;;13.30;7.23;;;;;;;;;;5030088;28;20097;-78
2023/01/18 02:07:46;;;;;;;14.67;7.97;;;;;;;;;;5031502;28;20029;-78
2023/01/18 02:10:11;;;;;;;13.07;7.97;;;;;;;;;;5031321;28;20025;-78
2023/01/18 02:12:43;;;;;;;14.60;7.63;;;;;;;;;;5030320;28;20033;-78
2023/01/18 02:15:09;;;;;;;12.45;7.30;;;;;;;;;;5033013;28;20116;-77
2023/01/18 02:17:53;;;;;;;11.83;6.37;;;;;;;;;;5029500;28;20095;-77
2023/01/18 02:20:31;;;;;;;10.53;6.40;;;;;;;;;;5029628;28;20457;-78
2023/01/18 02:23:25;;;;;;;10.90;6.43;;;;;;;;;;5029516;28;20056;-78
2023/01/18 02:26:22;;;;;;;12.83;6.80;;;;;;;;;;5029442;28;20018;-78
2023/01/18 02:29:07;;;;;;;13.80;6.30;;;;;;;;;;5030874;28;20473;-77
2023/01/18 02:31:43;;;;;;;8.90;5.33;;;;;;;;;;5029489;28;20181;-77
2023/01/18 02:34:26;;;;;;;10.33;5.20;;;;;;;;;;5029754;28;20072;-78
2023/01/18 02:37:00;;;;;;;10.63;5.43;;;;;;;;;;5029359;28;20393;-78
2023/01/18 02:39:37;;;;;;;9.47;5.90;;;;;;;;;;5009373;28;20366;-78
2023/01/18 02:48:04;;;;;;;9.33;6.07;;;;;;;;;;5010640;28;20507;-78
2023/01/18 02:50:30;;;;;;;9.23;5.40;;;;;;;;;;5009347;28;20109;-77
2023/01/18 02:52:56;;;;;;;10.20;5.77;;;;;;;;;;5010089;28;20118;-77
2023/01/18 02:55:37;;;;;;;9.87;6.33;;;;;;;;;;5010488;28;20038;-78
2023/01/18 02:58:29;;;;;;;9.03;5.20;;;;;;;;;;5010103;28;20022;-77
2023/01/18 03:01:01;;;;;;;8.77;4.93;;;;;;;;;;5009169;28;20410;-78
2023/01/18 03:03:27;;;;;;;;;;;;;;;;;;5015420;28;20032;-79
2023/01/18 03:05:58;;;;;;;12.93;6.77;;;;;;;;;;5009214;28;20000;-79
2023/01/18 03:08:35;;;;;;;7.80;6.15;;;;;;;;;;5010219;28;20022;-78
2023/01/18 03:11:08;;;;;;;8.90;5.70;;;;;;;;;;5008336;28;20038;-79
2023/01/18 03:13:37;;;;;;;10.27;5.70;;;;;;;;;;5008361;28;20444;-77
2023/01/18 03:16:11;;;;;;;11.20;6.83;;;;;;;;;;5008224;28;20439;-77
2023/01/18 03:19:04;;;;;;;8.43;5.37;;;;;;;;;;5008391;28;20121;-79
2023/01/18 03:21:44;;;;;;;10.63;5.90;;;;;;;;;;5009177;28;20478;-77
2023/01/18 03:24:10;;;;;;;12.30;5.53;;;;;;;;;;5009969;28;20061;-77
2023/01/18 03:26:41;;;;;;;10.77;6.13;;;;;;;;;;5009945;28;20037;-79
2023/01/18 03:35:06;;;;;;;10.90;5.67;;;;;;;;;;5009492;28;20060;-78
2023/01/18 03:37:43;;;;;;;10.57;5.97;;;;;;;;;;5012343;28;20025;-77
2023/01/18 03:40:22;;;;;;;8.27;5.67;;;;;;;;;;5027863;28;20120;-77
2023/01/18 03:43:17;;;;;;;8.23;5.57;;;;;;;;;;5027532;28;20547;-77
2023/01/18 03:45:48;;;;;;;9.70;5.80;;;;;;;;;;5027512;28;20053;-79
2023/01/18 03:48:14;;;;;;;11.27;6.33;;;;;;;;;;5030176;28;20505;-79
2023/01/18 03:51:14;;;;;;;8.07;5.00;;;;;;;;;;5028958;28;20029;-79
2023/01/18 03:54:04;;;;;;;9.23;5.73;;;;;;;;;;5032602;28;20060;-77
2023/01/18 03:56:40;;;;;;;10.03;5.60;;;;;;;;;;5033510;28;20033;-76
2023/01/18 03:59:06;;;;;;;8.30;5.07;;;;;;;;;;5033591;28;20044;-77
2023/01/18 04:01:32;;;;;;;7.90;4.67;;;;;;;;;;5033275;28;20064;-77
2023/01/18 04:03:58;;;;;;;12.67;6.27;;;;;;;;;;5031487;28;20033;-77
2023/01/18 04:06:24;;;;;;;9.17;5.60;;;;;;;;;;5031725;28;20048;-76
2023/01/18 04:08:50;;;;;;;11.30;6.10;;;;;;;;;;5032899;28;20036;-77
2023/01/18 04:11:16;;;;;;;11.67;5.67;;;;;;;;;;5031525;28;20029;-77
2023/01/18 04:13:42;;;;;;;7.93;5.43;;;;;;;;;;5031439;28;20087;-76
2023/01/18 04:16:09;;;;;;;8.63;5.43;;;;;;;;;;5032568;28;20098;-76
2023/01/18 04:18:35;;;;;;;11.67;5.70;;;;;;;;;;5033266;28;20033;-76
2023/01/18 04:21:00;;;;;;;11.57;5.93;;;;;;;;;;5033757;28;20040;-76
2023/01/18 04:23:26;;;;;;;9.83;5.67;;;;;;;;;;5031083;28;20057;-77
2023/01/18 04:25:52;;;;;;;9.53;5.83;;;;;;;;;;5014379;28;20029;-77
2023/01/18 04:28:24;;;;;;;11.23;6.23;;;;;;;;;;5030920;28;20520;-78
2023/01/18 04:30:53;;;;;;;9.15;6.35;;;;;;;;;;5031017;28;20068;-77
2023/01/18 04:33:20;;;;;;;10.00;5.63;;;;;;;;;;5031230;28;20056;-78
2023/01/18 04:35:47;;;;;;;9.20;5.53;;;;;;;;;;5032293;28;20018;-77
2023/01/18 04:38:12;;;;;;;11.33;5.23;;;;;;;;;;5022496;28;20025;-84
2023/01/18 04:40:38;;;;;;;12.40;7.37;;;;;;;;;;5026203;28;20120;-82
2023/01/18 04:43:03;;;;;;;11.87;6.40;;;;;;;;;;5030938;28;20064;-85
2023/01/18 04:45:29;;;;;;;11.77;6.27;;;;;;;;;;5032404;28;20153;-85
2023/01/18 04:47:55;;;;;;;10.97;6.53;;;;;;;;;;5031459;28;20029;-85
2023/01/18 04:50:21;;;;;;;13.00;6.67;;;;;;;;;;5034269;28;20029;-85
2023/01/18 04:52:46;;;;;;;14.57;6.90;;;;;;;;;;5037835;28;20028;-85
2023/01/18 04:55:14;;;;;;;13.20;7.03;;;;;;;;;;5031459;28;20036;-84
2023/01/18 04:57:41;;;;;;;12.17;6.17;;;;;;;;;;5032399;28;20497;-85
2023/01/18 05:00:09;;;;;;;12.07;5.97;;;;;;;;;;5030632;28;20036;-84
2023/01/18 05:02:35;;;;;;;8.53;5.83;;;;;;;;;;5031751;28;20033;-83
2023/01/18 05:05:03;;;;;;;12.03;6.93;;;;;;;;;;5031535;28;20059;-83
2023/01/18 05:07:31;;;;;;;12.67;6.33;;;;;;;;;;5032853;28;20466;-84
2023/01/18 05:09:56;;;;;;;12.07;6.33;;;;;;;;;;5030655;28;20036;-82
2023/01/18 05:12:22;;;;;;;11.00;6.43;;;;;;;;;;5032801;28;20398;-85
2023/01/18 05:14:47;;;;;;;12.07;6.80;;;;;;;;;;5033373;28;20100;-84
2023/01/18 05:17:13;;;;;;;13.20;7.00;;;;;;;;;;5034265;28;20350;-83
2023/01/18 05:19:39;;;;;;;12.23;7.13;;;;;;;;;;5032795;28;20029;-82
2023/01/18 05:22:06;;;;;;;13.77;6.40;;;;;;;;;;5031303;28;20037;-85
2023/01/18 05:24:31;;;;;;;13.87;7.40;;;;;;;;;;5035709;28;20037;-83
2023/01/18 05:26:57;;;;;;;13.23;6.53;;;;;;;;;;5033573;28;20079;-83
2023/01/18 05:29:23;;;;;;;11.60;6.40;;;;;;;;;;5018855;28;20085;-77
2023/01/18 05:31:48;;;;;;;16.27;7.40;;;;;;;;;;5026223;28;20021;-75
2023/01/18 05:34:14;;;;;;;11.07;6.80;;;;;;;;;;5012237;28;20026;-75
2023/01/18 05:36:40;;;;;;;14.40;6.63;;;;;;;;;;5010950;28;20040;-78
2023/01/18 05:39:06;;;;;;;12.27;6.27;;;;;;;;;;5027696;28;20046;-77
2023/01/18 05:41:31;;;;;;;10.97;7.13;;;;;;;;;;5030570;28;20026;-77
2023/01/18 05:43:57;;;;;;;15.10;7.83;;;;;;;;;;5030927;28;20083;-76
2023/01/18 05:46:22;;;;;;;12.77;7.30;;;;;;;;;;5029366;28;20045;-76
2023/01/18 05:48:48;;;;;;;12.73;7.03;;;;;;;;;;5028950;28;20501;-78
2023/01/18 05:51:13;;;;;;;12.33;7.07;;;;;;;;;;5028411;28;20021;-78
2023/01/18 05:53:39;;;;;;;13.03;7.37;;;;;;;;;;5030139;28;20491;-77
2023/01/18 05:56:06;;;;;;;13.20;7.37;;;;;;;;;;5027708;28;20029;-78
2023/01/18 05:58:32;;;;;;;13.30;8.00;;;;;;;;;;5012862;28;20449;-80
2023/01/18 06:00:57;;;;;;;15.53;8.87;;;;;;;;;;5009459;28;20049;-76
2023/01/18 06:03:24;;;;;;;13.20;7.40;;;;;;;;;;5027185;28;20384;-76
2023/01/18 06:05:50;;;;;;;12.00;7.50;;;;;;;;;;5028757;28;20036;-76
2023/01/18 06:08:16;;;;;;;11.07;6.93;;;;;;;;;;5029421;28;20440;-79
2023/01/18 06:10:42;;;;;;;14.93;7.90;;;;;;;;;;5026441;28;20029;-76
2023/01/18 06:13:09;;;;;;;11.73;7.00;;;;;;;;;;5029237;28;20074;-78
2023/01/18 06:15:35;;;;;;;13.70;7.67;;;;;;;;;;5023966;28;20087;-81
2023/01/18 06:18:00;;;;;;;13.17;7.43;;;;;;;;;;5015838;28;20030;-79
2023/01/18 06:20:29;;;;;;;16.10;7.57;;;;;;;;;;5015302;28;20100;-80
2023/01/18 06:22:58;;;;;;;12.23;7.93;;;;;;;;;;5026247;28;20497;-78
2023/01/18 06:25:24;;;;;;;10.90;7.10;;;;;;;;;;5023521;28;20029;-79
2023/01/18 06:27:51;;;;;;;13.07;6.87;;;;;;;;;;5024939;28;20029;-82
2023/01/18 06:30:17;;;;;;;12.10;6.93;;;;;;;;;;5008281;28;20030;-79
2023/01/18 06:32:43;;;;;;;15.40;7.50;;;;;;;;;;5021247;28;20049;-77
2023/01/18 06:35:11;;;;;;;14.53;8.10;;;;;;;;;;5027008;28;20032;-78
2023/01/18 06:37:38;;;;;;;13.63;8.07;;;;;;;;;;5025178;28;20059;-82
2023/01/18 06:40:04;;;;;;;12.97;7.40;;;;;;;;;;5024197;28;20079;-76
2023/01/18 06:42:30;;;;;;;18.00;8.57;;;;;;;;;;5022804;28;20082;-78
2023/01/18 06:44:56;;;;;;;14.90;8.20;;;;;;;;;;5026407;28;20099;-78
2023/01/18 06:47:22;;;;;;;18.53;9.40;;;;;;;;;;5026101;28;20037;-78
2023/01/18 06:49:47;;;;;;;13.23;8.03;;;;;;;;;;5029475;28;20036;-80
2023/01/18 06:52:14;;;;;;;19.80;9.90;;;;;;;;;;5025767;28;20031;-80
2023/01/18 06:54:39;;;;;;;16.90;9.20;;;;;;;;;;5026487;28;20022;-79
2023/01/18 06:57:05;;;;;;;21.63;10.37;;;;;;;;;;5025941;28;20033;-77
2023/01/18 06:59:30;;;;;;;19.67;9.83;;;;;;;;;;5018980;28;20033;-79
2023/01/18 07:01:56;;;;;;;17.17;9.40;;;;;;;;;;5020587;28;20116;-78
2023/01/18 07:04:21;;;;;;;17.00;9.70;;;;;;;;;;5024655;28;20528;-77
2023/01/18 07:06:47;;;;;;;19.77;10.87;;;;;;;;;;5020476;28;20040;-81
2023/01/18 07:09:13;;;;;;;16.00;9.00;;;;;;;;;;5023057;28;20113;-79
2023/01/18 07:11:42;;;;;;;19.87;9.93;;;;;;;;;;5018857;28;20427;-80
2023/01/18 07:14:14;;;;;;;19.70;10.53;;;;;;;;;;5026455;28;20112;-77
2023/01/18 07:16:40;;;;;;;21.57;9.67;;;;;;;;;;5022501;28;20061;-78
2023/01/18 07:19:06;;;;;;;20.23;10.07;;;;;;;;;;5022009;28;20095;-77
2023/01/18 07:21:31;;;;;;;22.83;10.67;;;;;;;;;;5022640;28;20033;-78
2023/01/18 07:23:58;;;;;;;23.43;9.93;;;;;;;;;;5023867;28;20555;-81
2023/01/18 07:26:24;;;;;;;23.50;10.17;;;;;;;;;;5028725;28;20026;-81
2023/01/18 07:28:50;;;;;;;23.50;10.80;;;;;;;;;;5023540;28;20047;-81
2023/01/18 07:31:17;;;;;;;24.83;11.17;;;;;;;;;;5023025;28;20477;-81
2023/01/18 07:33:43;;;;;;;27.40;11.83;;;;;;;;;;5027428;28;20063;-79
2023/01/18 07:36:10;;;;;;;27.03;11.40;;;;;;;;;;5027465;28;20292;-84
2023/01/18 07:38:38;;;;;;;23.17;10.43;;;;;;;;;;5025504;28;20752;-83
2023/01/18 07:41:13;;;;;;;22.83;11.07;;;;;;;;;;5022649;28;20060;-80
2023/01/18 07:43:41;;;;;;;32.97;12.87;;;;;;;;;;5025753;28;20025;-77
2023/01/18 07:46:10;;;;;;;25.70;11.17;;;;;;;;;;5022438;28;20080;-77
2023/01/18 07:48:35;;;;;;;28.40;11.17;;;;;;;;;;5024778;28;20045;-80
2023/01/18 07:51:05;;;;;;;27.80;10.43;;;;;;;;;;5022776;28;20470;-81
2023/01/18 07:53:33;;;;;;;26.97;12.43;;;;;;;;;;5014436;28;20068;-79
2023/01/18 07:56:00;;;;;;;29.13;11.07;;;;;;;;;;5027296;28;20478;-80
2023/01/18 07:58:26;;;;;;;33.87;14.13;;;;;;;;;;5029157;28;20029;-79
2023/01/18 08:00:52;;;;;;;22.93;10.70;;;;;;;;;;5022942;28;20517;-77
2023/01/18 08:03:18;;;;;;;26.37;9.60;;;;;;;;;;5026261;28;20031;-79
2023/01/18 08:05:45;;;;;;;27.17;11.13;;;;;;;;;;5022737;28;20033;-81
2023/01/18 08:08:12;;;;;;;27.97;10.73;;;;;;;;;;5025547;28;20036;-76
2023/01/18 08:10:41;;;;;;;28.27;11.17;;;;;;;;;;5017160;28;20112;-76
2023/01/18 08:13:13;;;;;;;26.93;10.77;;;;;;;;;;5003175;28;20033;-77
2023/01/18 08:15:39;;;;;;;;;;;;;;;;;;5003096;28;20033;-79
2023/01/18 08:18:06;;;;;;;24.13;9.00;;;;;;;;;;5020786;28;20032;-77
2023/01/18 08:20:32;;;;;;;21.73;9.40;;;;;;;;;;5011209;28;20033;-77
2023/01/18 08:22:59;;;;;;;22.60;8.07;;;;;;;;;;5015616;28;20119;-80
2023/01/18 08:25:30;;;;;;;23.50;9.70;;;;;;;;;;5027211;28;20041;-81
2023/01/18 08:27:59;;;;;;;24.20;9.65;;;;;;;;;;5023837;28;20041;-76
2023/01/18 08:30:27;;;;;;;18.63;8.30;;;;;;;;;;5025616;28;20393;-79
2023/01/18 08:32:57;;;;;;;19.33;9.43;;;;;;;;;;5021084;28;20029;-83
2023/01/18 08:35:29;;;;;;;24.40;9.57;;;;;;;;;;5017566;28;20087;-81
2023/01/18 08:38:14;;;;;;;24.25;9.80;;;;;;;;;;5018484;28;20612;-81
2023/01/18 08:40:40;;;;;;;24.53;9.37;;;;;;;;;;5017639;28;20241;-78
2023/01/18 08:43:06;;;;;;;22.30;9.17;;;;;;;;;;5024191;28;20041;-78
2023/01/18 08:45:33;;;;;;;22.33;9.77;;;;;;;;;;5007255;28;20088;-80
2023/01/18 08:48:02;;;;;;;24.33;11.07;;;;;;;;;;5021343;28;20033;-79
2023/01/18 08:50:29;;;;;;;23.70;9.77;;;;;;;;;;5021066;28;20505;-79
2023/01/18 08:52:55;;;;;;;27.53;12.20;;;;;;;;;;5025751;28;20036;-83
2023/01/18 08:55:21;;;;;;;27.90;10.93;;;;;;;;;;5021731;28;20133;-79
2023/01/18 08:57:48;;;;;;;27.67;12.33;;;;;;;;;;5026308;28;20035;-80
2023/01/18 09:00:15;;;;;;;28.80;12.70;;;;;;;;;;5024450;28;20033;-81
2023/01/18 09:02:41;;;;;;;24.53;10.57;;;;;;;;;;5025404;28;20025;-81
2023/01/18 09:05:07;;;;;;;22.77;9.37;;;;;;;;;;5024389;28;20249;-78
2023/01/18 09:07:32;;;;;;;25.87;11.60;;;;;;;;;;5026953;28;20041;-81
2023/01/18 09:09:58;;;;;;;25.33;11.03;;;;;;;;;;5027523;28;20029;-78
2023/01/18 09:12:25;;;;;;;27.40;11.50;;;;;;;;;;5019610;28;20041;-77
2023/01/18 09:14:50;;;;;;;26.17;11.13;;;;;;;;;;5023036;28;20048;-80
2023/01/18 09:17:19;;;;;;;24.03;11.30;;;;;;;;;;5022673;28;20471;-77
2023/01/18 09:19:45;;;;;;;30.50;12.63;;;;;;;;;;5022518;28;20018;-81
2023/01/18 09:22:11;;;;;;;28.00;11.70;;;;;;;;;;5020804;28;20323;-78
2023/01/18 09:24:37;;;;;;;25.80;12.17;;;;;;;;;;5004891;28;20536;-78
2023/01/18 09:27:04;;;;;;;24.63;11.67;;;;;;;;;;5028232;28;20092;-81
2023/01/18 09:29:31;;;;;;;26.93;11.00;;;;;;;;;;5024705;28;20374;-76
2023/01/18 09:31:56;;;;;;;25.27;10.20;;;;;;;;;;5022123;28;20064;-79
2023/01/18 09:34:22;;;;;;;24.97;11.30;;;;;;;;;;5026356;28;20115;-80
2023/01/18 09:36:52;;;;;;;22.77;9.83;;;;;;;;;;5020953;28;20473;-80
2023/01/18 09:39:21;;;;;;;22.30;10.10;;;;;;;;;;5020434;28;20076;-83
2023/01/18 09:41:55;;;;;;;23.43;10.10;;;;;;;;;;5023068;28;20064;-78
2023/01/18 09:44:33;;;;;;;22.57;9.80;;;;;;;;;;5025036;28;20054;-78
2023/01/18 09:47:04;;;;;;;22.67;10.77;;;;;;;;;;5029369;28;20029;-76
2023/01/18 09:49:42;;;;;;;21.57;11.80;;;;;;;;;;5023474;28;20049;-78
2023/01/18 09:52:14;;;;;;;23.53;11.00;;;;;;;;;;5017839;28;20318;-79
2023/01/18 09:54:56;;;;;;;27.23;10.70;;;;;;;;;;5020431;28;20045;-77
2023/01/18 09:57:32;;;;;;;22.50;10.13;;;;;;;;;;5021210;28;20405;-82
2023/01/18 10:00:00;;;;;;;35.87;14.13;;;;;;;;;;5017308;28;20065;-80
2023/01/18 10:02:37;;;;;;;26.27;11.63;;;;;;;;;;5006654;28;20029;-73
2023/01/18 10:05:12;;;;;;;27.60;12.30;;;;;;;;;;5021287;28;20067;-80
2023/01/18 10:08:12;;;;;;;32.90;14.27;;;;;;;;;;5017538;28;20053;-78
2023/01/18 10:10:56;;;;;;;29.43;13.83;;;;;;;;;;5018724;28;20045;-78
2023/01/18 10:13:41;;;;;;;32.23;13.30;;;;;;;;;;5025892;28;20035;-79
2023/01/18 10:16:13;;;;;;;28.90;12.37;;;;;;;;;;5028513;28;20545;-81
2023/01/18 10:18:44;;;;;;;33.17;12.75;;;;;;;;;;5022106;28;20037;-77
2023/01/18 10:21:34;;;;;;;27.03;13.60;;;;;;;;;;5016861;28;22296;-77
2023/01/18 10:24:15;;;;;;;31.33;12.63;;;;;;;;;;4999712;28;20063;-79
2023/01/18 10:26:41;;;;;;;29.02;13.02;;;;;;;;;;5018087;28;20430;-82
2023/01/18 10:29:11;;;;;;;26.10;13.77;;;;;;;;;;5029024;28;20038;-79
2023/01/18 10:31:59;;;;;;;30.83;13.20;;;;;;;;;;5024667;28;20029;-78
2023/01/18 10:34:31;;;;;;;29.30;14.03;;;;;;;;;;5022871;28;20029;-79
2023/01/18 10:37:13;;;;;;;27.93;13.23;;;;;;;;;;5006828;28;20033;-81
2023/01/18 10:40:08;;;;;;;27.23;12.43;;;;;;;;;;5019947;28;20071;-79
2023/01/18 10:42:44;;;;;;;27.20;12.47;;;;;;;;;;5019559;28;20026;-81
2023/01/18 10:45:22;;;;;;;23.97;13.50;;;;;;;;;;5024637;28;20092;-81
2023/01/18 10:47:48;;;;;;;26.60;12.53;;;;;;;;;;5024797;28;20037;-82
2023/01/18 10:50:24;;;;;;;25.53;11.40;;;;;;;;;;5024514;28;20052;-82
2023/01/18 10:52:51;;;;;;;27.13;12.37;;;;;;;;;;5020499;28;20030;-82
2023/01/18 10:55:18;;;;;;;25.67;11.97;;;;;;;;;;5026393;28;20614;-78
2023/01/18 10:57:50;;;;;;;24.73;11.90;;;;;;;;;;5026511;28;21263;-79
2023/01/18 11:00:26;;;;;;;24.63;12.10;;;;;;;;;;5027688;28;20026;-82
2023/01/18 11:02:59;;;;;;;27.20;13.13;;;;;;;;;;5019955;28;20504;-81
2023/01/18 11:05:36;;;;;;;29.80;13.23;;;;;;;;;;5021651;28;20461;-80
2023/01/18 11:08:32;;;;;;;23.80;11.93;;;;;;;;;;5023169;28;20497;-80
2023/01/18 11:11:02;;;;;;;27.70;12.93;;;;;;;;;;5026361;28;20129;-79
2023/01/18 11:13:41;;;;;;;28.07;12.27;;;;;;;;;;5024672;28;20026;-81
2023/01/18 11:16:20;;;;;;;29.80;14.13;;;;;;;;;;5024562;28;20037;-80
2023/01/18 11:19:01;;;;;;;26.97;13.97;;;;;;;;;;5028783;28;20032;-82
2023/01/18 11:21:51;;;;;;;29.27;13.17;;;;;;;;;;5024677;28;20030;-83
2023/01/18 11:24:32;;;;;;;30.43;13.97;;;;;;;;;;5024128;28;20030;-81
2023/01/18 11:27:11;;;;;;;27.30;13.47;;;;;;;;;;5026440;28;20091;-82
2023/01/18 11:29:42;;;;;;;31.93;13.83;;;;;;;;;;5026832;28;20642;-80
2023/01/18 11:32:27;;;;;;;31.13;13.77;;;;;;;;;;5019818;28;20032;-83
2023/01/18 11:35:02;;;;;;;32.57;15.57;;;;;;;;;;5014482;28;20287;-84
2023/01/18 11:37:36;;;;;;;31.97;16.30;;;;;;;;;;5022699;28;20041;-80
2023/01/18 11:40:26;;;;;;;27.40;13.30;;;;;;;;;;5023824;28;20512;-82
2023/01/18 11:42:58;;;;;;;33.67;15.70;;;;;;;;;;5023559;28;20033;-83
2023/01/18 11:45:39;;;;;;;;;;;;;;;;;;5028049;28;20182;-80
2023/01/18 11:48:11;;;;;;;36.87;16.37;;;;;;;;;;5023667;28;20006;-80
2023/01/18 11:51:01;;;;;;;31.30;15.33;;;;;;;;;;5026130;28;20562;-79
2023/01/18 11:53:54;;;;;;;32.77;15.33;;;;;;;;;;5022077;28;20095;-79
2023/01/18 11:56:31;;;;;;;40.47;16.93;;;;;;;;;;5020556;28;20484;-80
2023/01/18 11:58:58;;;;;;;36.33;16.13;;;;;;;;;;5015153;28;20092;-83
2023/01/18 12:01:56;;;;;;;46.27;17.47;;;;;;;;;;5001560;28;20038;-78
2023/01/18 12:04:39;;;;;;;37.13;17.67;;;;;;;;;;5022387;28;20052;-77
2023/01/18 12:07:27;;;;;;;36.97;16.93;;;;;;;;;;5024136;28;20501;-80
2023/01/18 12:10:03;;;;;;;38.50;18.30;;;;;;;;;;5023422;28;20130;-81
2023/01/18 12:12:52;;;;;;;38.23;16.80;;;;;;;;;;5017381;28;20106;-78
2023/01/18 12:15:30;;;;;;;37.10;17.07;;;;;;;;;;5024907;28;20041;-78
2023/01/18 12:18:11;;;;;;;36.27;17.33;;;;;;;;;;5029967;28;20144;-82
2023/01/18 12:20:57;;;;;;;52.37;17.97;;;;;;;;;;5024362;28;20079;-79
2023/01/18 12:24:03;;;;;;;35.30;16.40;;;;;;;;;;5017544;28;20424;-82
2023/01/18 12:26:44;;;;;;;34.80;15.50;;;;;;;;;;5021544;28;20618;-85
2023/01/18 12:29:47;;;;;;;36.63;16.47;;;;;;;;;;5029115;28;20438;-82
2023/01/18 12:32:24;;;;;;;32.17;15.23;;;;;;;;;;5024825;28;20022;-81
2023/01/18 12:35:11;;;;;;;35.80;18.77;;;;;;;;;;5024382;28;20037;-81
2023/01/18 12:38:11;;;;;;;38.67;16.03;;;;;;;;;;5028194;28;20029;-81
2023/01/18 12:40:58;;;;;;;35.03;15.60;;;;;;;;;;5027954;28;20033;-80
2023/01/18 12:43:30;;;;;;;32.27;15.53;;;;;;;;;;5024419;28;20086;-82
2023/01/18 12:46:21;;;;;;;40.58;15.93;;;;;;;;;;5026676;28;20049;-80
2023/01/18 12:48:53;;;;;;;34.27;15.13;;;;;;;;;;5026385;28;20041;-79
2023/01/18 12:51:23;;;;;;;29.05;13.23;;;;;;;;;;5019749;28;20473;-79
2023/01/18 12:54:05;;;;;;;43.83;15.07;;;;;;;;;;5025696;28;20069;-80
2023/01/18 12:56:36;;;;;;;29.17;14.27;;;;;;;;;;5018609;28;20090;-77
2023/01/18 12:59:21;;;;;;;31.13;14.82;;;;;;;;;;5016691;28;20083;-74
2023/01/18 13:02:20;;;;;;;36.50;16.23;;;;;;;;;;5020129;28;20047;-75
2023/01/18 13:05:31;;;;;;;30.33;14.83;;;;;;;;;;5016615;28;20048;-84
2023/01/18 13:08:20;;;;;;;34.07;15.13;;;;;;;;;;5022738;28;20051;-82
2023/01/18 13:10:47;;;;;;;28.73;14.07;;;;;;;;;;5024661;28;20044;-78
2023/01/18 13:13:18;;;;;;;29.67;13.23;;;;;;;;;;5020797;28;20033;-80
2023/01/18 13:15:58;;;;;;;24.75;13.82;;;;;;;;;;5019944;28;20041;-81
2023/01/18 13:18:32;;;;;;;35.70;13.53;;;;;;;;;;5022209;28;20089;-81
2023/01/18 13:21:09;;;;;;;29.37;12.77;;;;;;;;;;5023175;28;20033;-81
2023/01/18 13:23:58;;;;;;;25.27;13.10;;;;;;;;;;5019832;28;20030;-81
2023/01/18 13:26:24;;;;;;;26.57;13.93;;;;;;;;;;5027053;28;20029;-81
2023/01/18 13:29:08;;;;;;;30.57;13.10;;;;;;;;;;5026166;28;20021;-76
2023/01/18 13:31:36;;;;;;;33.23;14.03;;;;;;;;;;5031005;28;20327;-82
2023/01/18 13:34:02;;;;;;;32.30;14.33;;;;;;;;;;5027324;28;20036;-84
2023/01/18 13:36:43;;;;;;;29.43;13.83;;;;;;;;;;5029505;28;20147;-87
2023/01/18 13:39:15;;;;;;;32.13;13.90;;;;;;;;;;5022641;28;20025;-77
2023/01/18 13:42:01;;;;;;;24.37;11.73;;;;;;;;;;5023558;28;20043;-84
2023/01/18 13:44:37;;;;;;;25.20;12.33;;;;;;;;;;5029938;28;20050;-79
2023/01/18 13:47:38;;;;;;;26.77;13.03;;;;;;;;;;5023965;28;20068;-80
2023/01/18 13:50:36;;;;;;;24.27;11.97;;;;;;;;;;5024072;28;20490;-79
2023/01/18 13:53:20;;;;;;;27.77;13.43;;;;;;;;;;5020348;28;20040;-82
2023/01/18 13:56:30;;;;;;;30.97;13.80;;;;;;;;;;5029640;28;20123;-81
2023/01/18 13:59:20;;;;;;;31.97;13.87;;;;;;;;;;5022665;28;20230;-84
2023/01/18 14:01:51;;;;;;;29.60;14.23;;;;;;;;;;5018980;28;20037;-79
2023/01/18 14:04:25;;;;;;;33.00;14.10;;;;;;;;;;5020327;28;20044;-79
2023/01/18 14:06:52;;;;;;;24.43;12.57;;;;;;;;;;5023872;28;20033;-80
2023/01/18 14:09:28;;;;;;;24.97;12.50;;;;;;;;;;5018107;28;20036;-82
2023/01/18 14:11:56;;;;;;;26.37;12.10;;;;;;;;;;5016829;28;20045;-79
2023/01/18 14:14:33;;;;;;;24.10;13.43;;;;;;;;;;5021495;28;20033;-78
2023/01/18 14:17:14;;;;;;;27.17;11.50;;;;;;;;;;5027489;28;20018;-79
2023/01/18 14:19:56;;;;;;;31.63;12.80;;;;;;;;;;5016442;28;20061;-82
2023/01/18 14:22:59;;;;;;;26.77;12.20;;;;;;;;;;5013444;28;20033;-80
2023/01/18 14:25:31;;;;;;;24.37;13.00;;;;;;;;;;5025515;28;20037;-82
2023/01/18 14:28:35;;;;;;;24.60;12.30;;;;;;;;;;5020976;28;20474;-84
2023/01/18 14:31:03;;;;;;;27.67;11.43;;;;;;;;;;5016803;28;20048;-82
2023/01/18 14:33:36;;;;;;;23.07;12.37;;;;;;;;;;5019681;28;20080;-79
2023/01/18 14:36:07;;;;;;;24.80;11.93;;;;;;;;;;5022768;28;20096;-85
2023/01/18 14:38:33;;;;;;;29.13;13.63;;;;;;;;;;5027301;28;20036;-85
2023/01/18 14:41:06;;;;;;;23.27;11.07;;;;;;;;;;5029226;28;20095;-81
2023/01/18 14:43:43;;;;;;;25.87;11.87;;;;;;;;;;5018363;28;20524;-83
2023/01/18 14:46:30;;;;;;;23.93;12.17;;;;;;;;;;5021735;28;20095;-84
2023/01/18 14:48:57;;;;;;;27.83;12.33;;;;;;;;;;5026074;28;20059;-83
2023/01/18 14:51:27;;;;;;;27.60;11.97;;;;;;;;;;5014069;28;20048;-82
2023/01/18 14:54:03;;;;;;;24.87;12.60;;;;;;;;;;5023662;28;20017;-82
2023/01/18 14:56:33;;;;;;;29.43;12.37;;;;;;;;;;5035848;28;20030;-82
2023/01/18 14:59:20;;;;;;;22.07;11.77;;;;;;;;;;5016880;28;20087;-82
2023/01/18 15:01:52;;;;;;;30.77;11.57;;;;;;;;;;5030426;28;20033;-82
2023/01/18 15:04:22;;;;;;;24.42;12.05;;;;;;;;;;5022084;28;20579;-79
2023/01/18 15:07:05;;;;;;;24.80;12.47;;;;;;;;;;5027701;28;20195;-84
2023/01/18 15:09:31;;;;;;;;;;;;;;;;;;5020713;28;20390;-78
2023/01/18 15:12:03;;;;;;;21.77;11.53;;;;;;;;;;5021477;28;20035;-80
2023/01/18 15:14:32;;;;;;;22.73;11.75;;;;;;;;;;5020057;28;20168;-85
2023/01/18 15:16:59;;;;;;;32.40;13.23;;;;;;;;;;5023799;28;20060;-79
2023/01/18 15:19:44;;;;;;;27.70;13.07;;;;;;;;;;5023556;28;20569;-80
2023/01/18 15:22:12;;;;;;;25.03;12.40;;;;;;;;;;5019958;28;20160;-80
2023/01/18 15:24:40;;;;;;;22.53;12.10;;;;;;;;;;5028756;28;20100;-82
2023/01/18 15:27:14;;;;;;;23.97;11.33;;;;;;;;;;5003856;28;20033;-83